• Join FlightAware (Why Join?)
  • Login
  • US Flag 
11:48AM EDT


 

Airport Tracker/Info


-or-


 

Live Flight TrackerFlight Track Log ✈ GJS3649 ✈ 04-May-2013 ✈ KBOI - KORD

Flight Track Log - Related Links

Times and Time Zones

All times are in EDT time to prevent confusion due to time zone crossing. See the GJS3649 flight status page for this flight to view local times or setup timezone preferences in your user account.

Time Position Orientation Groundspeed Altitude Reporting Facility
EDT Latitude Longitude Course Direction KTS MPH feet Rate Location/Type
09:08AM 43.5414 -116.1528 90° East 163 188 5,100  Level Salt Lake Center
09:09AM 43.5175 -116.0700 112° Southeast 221 254 7,100 1,860 Climbing Salt Lake Center
09:10AM 43.5117 -115.9728 95° East 272 313 8,900 1,980 Climbing Salt Lake Center
09:11AM 43.6483 -115.6195 78° East  Level FlightAware Approximate
09:11AM 43.5303 -115.8617 77° East 285 328 11,100  Level Salt Lake Center
09:12AM 43.6697 -115.4670 83° East  Level FlightAware Approximate
09:12AM 43.5494 -115.7461 77° East 318 366 12,600  Level Salt Lake Center
09:13AM 43.6833 -115.3081 90° East  Level FlightAware Approximate
09:13AM 43.5725 -115.6122 77° East 341 392 14,500  Level Salt Lake Center
09:14AM 43.5947 -115.4831 77° East 358 412 16,200 1,680 Climbing Salt Lake Center
09:15AM 43.6183 -115.3406 77° East 365 420 18,000 1,620 Climbing Salt Lake Center
09:16AM 43.6408 -115.2061 77° East 372 428 19,500 1,560 Climbing Salt Lake Center
09:17AM 43.6656 -115.0569 77° East 379 436 21,200 1,560 Climbing Salt Lake Center
09:18AM 43.6875 -114.9197 77° East 384 442 22,700 1,500 Climbing Salt Lake Center
09:19AM 43.7131 -114.7594 78° East 386 444 24,300 1,380 Climbing Salt Lake Center
09:20AM 43.7356 -114.6189 77° East 392 451 25,600 1,140 Climbing Salt Lake Center
09:21AM 43.7594 -114.4772 77° East 398 458 26,600 900 Climbing Salt Lake Center
09:22AM 43.7842 -114.3089 78° East 400 460 27,500 780 Climbing Salt Lake Center
09:23AM 43.8083 -114.1581 77° East 417 480 28,200 720 Climbing Salt Lake Center
09:24AM 43.8325 -114.0058 78° East 424 488 29,000 840 Climbing Salt Lake Center
09:25AM 43.8592 -113.8253 78° East 428 493 29,900 780 Climbing Salt Lake Center
09:26AM 43.8822 -113.6703 78° East 429 494 30,700 720 Climbing Salt Lake Center
09:27AM 43.9050 -113.5131 79° East 433 498 31,400 780 Climbing Salt Lake Center
09:28AM 43.9297 -113.3286 79° East 436 502 32,300 840 Climbing Salt Lake Center
09:29AM 43.9525 -113.1717 79° East 433 498 33,100 780 Climbing Salt Lake Center
09:30AM 43.9753 -113.0139 79° East 436 502 33,900 720 Climbing Salt Lake Center
09:31AM 44.0011 -112.8311 79° East 434 499 34,600 540 Climbing Salt Lake Center
09:32AM 44.0236 -112.6750 79° East 432 497 35,000 180 Climbing Salt Lake Center
09:33AM 44.0478 -112.5169 78° East 435 501 35,000  Level Salt Lake Center
09:34AM 44.0722 -112.3314 80° East 437 503 35,000  Level Salt Lake Center
09:35AM 44.0897 -112.1708 81° East 439 505 35,000  Level Salt Lake Center
09:36AM 44.0903 -112.0117 90° East 432 497 35,000  Level Salt Lake Center
09:37AM 44.0925 -111.8217 89° East 439 505 35,000  Level Salt Lake Center
09:38AM 44.0936 -111.6583 89° East 444 511 35,000  Level Salt Lake Center
09:39AM 44.0944 -111.4686 90° East 444 511 35,000  Level Salt Lake Center
09:40AM 44.0950 -111.3044 90° East 445 512 35,000  Level Salt Lake Center
09:41AM 44.0953 -111.1414 90° East 444 511 35,000  Level Salt Lake Center
09:42AM 44.0947 -110.9481 90° East 450 518 35,000  Level Salt Lake Center
09:43AM 44.0942 -110.7839 90° East 447 514 35,000  Level Salt Lake Center
09:44AM 44.0933 -110.5903 90° East 448 516 35,000  Level Salt Lake Center
09:45AM 44.0936 -110.4217 90° East 455 524 35,000  Level Salt Lake Center
09:46AM 44.0925 -110.2544 90° East 454 522 35,000  Level Salt Lake Center
09:47AM 44.0900 -110.0603 91° East 452 520 35,000  Level Salt Lake Center
09:48AM 44.0886 -109.8922 91° East 453 521 35,000  Level Salt Lake Center
09:49AM 44.0872 -109.7233 91° East 455 524 35,000  Level Salt Lake Center
09:51AM 44.0836 -109.5278 91° East 455 524 35,000  Level Salt Lake Center
09:52AM 44.0817 -109.3444 91° East 453 521 35,000  Level Salt Lake Center
09:53AM 44.0786 -109.1756 91° East 457 526 35,000  Level Salt Lake Center
09:54AM 44.0758 -109.0061 91° East 458 527 35,000  Level Salt Lake Center
09:55AM 44.0719 -108.8089 92° East 459 528 35,000  Level Salt Lake Center
09:56AM 44.0686 -108.6406 92° East 458 527 35,000  Level Salt Lake Center
09:57AM 44.0642 -108.4708 92° East 460 529 35,000  Level Salt Lake Center
09:58AM 44.0589 -108.2736 92° East 460 529 35,000  Level Salt Lake Center
09:59AM 44.0556 -108.1056 92° East 457 526 35,000  Level Salt Lake Center
10:00AM 44.0503 -107.9106 92° East 453 521 35,000  Level Salt Lake Center
10:01AM 44.0447 -107.7439 93° East 452 520 35,000  Level Salt Lake Center
10:02AM 44.0403 -107.5769 92° East 452 520 35,000  Level Salt Lake Center
10:03AM 44.0344 -107.3836 92° East 450 518 35,000  Level Salt Lake Center
10:04AM 44.0286 -107.2186 93° East 449 517 35,000  Level Salt Lake Center
10:05AM 44.0222 -107.0272 93° East 447 514 35,000  Level Salt Lake Center
10:06AM 44.0161 -106.8622 93° East 447 514 35,000  Level Salt Lake Center
10:07AM 44.0092 -106.6767 93° East 448 516 35,000  Level Denver Center
10:08AM 44.0033 -106.5111 93° East 448 516 35,000  Level Denver Center
10:09AM 44.0006 -106.3186 91° East 447 514 35,000  Level Denver Center
10:10AM 44.0033 -106.1519 89° East 449 517 35,000  Level Denver Center
10:11AM 44.0042 -105.9578 90° East 450 518 35,000  Level Denver Center
10:12AM 44.0036 -105.7942 90° East 446 513 35,000  Level Denver Center
10:13AM 44.0042 -105.6297 90° East 445 512 35,000  Level Denver Center
10:14AM 44.0056 -105.4356 89° East 448 516 35,000  Level Denver Center
10:15AM 44.0042 -105.2722 91° East 445 512 35,000  Level Denver Center
10:16AM 44.0042 -105.1058 90° East 447 514 35,000  Level Denver Center
10:17AM 44.0033 -104.9119 90° East 449 517 35,000  Level Denver Center
10:18AM 44.0011 -104.6922 91° East 447 514 35,000  Level Denver Center
10:19AM 43.9992 -104.5261 91° East 449 517 35,000  Level Denver Center
10:20AM 43.9983 -104.3611 90° East 447 514 35,000  Level Denver Center
10:21AM 43.9953 -104.1681 91° East 448 516 35,000  Level Denver Center
10:22AM 43.9942 -104.0039 90° East 444 511 35,000  Level Denver Center
10:23AM 43.9917 -103.8378 91° East 447 514 35,000  Level Denver Center
10:24AM 43.9900 -103.6483 91° East 439 505 35,000  Level Denver Center
10:25AM 43.9875 -103.4858 91° East 440 506 35,000  Level Denver Center
10:27AM 43.9828 -103.2947 92° East 442 509 35,000  Level Denver Center
10:28AM 43.9794 -103.1342 92° East 437 503 35,000  Level Denver Center
10:29AM 43.9764 -102.9475 91° East 435 501 35,000  Level Denver Center
10:30AM 43.9731 -102.7894 92° East 433 498 35,000  Level Denver Center
10:31AM 43.9681 -102.6192 92° East 439 505 35,000  Level Denver Center
10:32AM 43.9606 -102.4483 93° East 441 507 35,000  Level Denver Center
10:33AM 43.9544 -102.2789 93° East 443 510 35,000  Level Denver Center
10:34AM 43.9478 -102.1064 93° East 445 512 35,000  Level Denver Center
10:35AM 43.9400 -101.9011 93° East 446 513 35,000  Level Denver Center
10:36AM 43.9342 -101.7308 93° East 445 512 35,000  Level Denver Center
10:37AM 43.9306 -101.5636 92° East 442 509 35,000  Level Denver Center
10:38AM 43.9244 -101.3953 93° East 439 505 35,000  Level Denver Center
10:39AM 43.9161 -101.2219 94° East 449 517 35,000  Level Denver Center
10:40AM 43.9103 -101.0539 93° East 443 510 35,000  Level Minneapolis Center
10:41AM 43.9019 -100.8836 94° East 444 511 35,000  Level Minneapolis Center
10:42AM 43.8942 -100.6828 93° East 441 507 35,000  Level Minneapolis Center
10:43AM 43.8864 -100.5128 94° East 443 510 35,000  Level Minneapolis Center
10:44AM 43.8786 -100.3428 94° East 444 511 35,000  Level Minneapolis Center
10:45AM 43.8700 -100.1744 94° East 441 507 35,000  Level Minneapolis Center
10:46AM 43.8608 -100.0003 94° East 440 506 35,000  Level Minneapolis Center
10:47AM 43.8506 -99.8042 94° East 440 506 35,000  Level Minneapolis Center
10:48AM 43.8417 -99.6317 94° East 446 513 35,000  Level Minneapolis Center
10:49AM 43.8322 -99.4628 94° East 443 510 35,000  Level Minneapolis Center
10:50AM 43.8231 -99.2928 94° East 443 510 35,000  Level Minneapolis Center
10:51AM 43.8103 -99.0889 95° East 446 513 35,000  Level Minneapolis Center
10:52AM 43.8000 -98.9197 95° East 443 510 35,000  Level Minneapolis Center
10:53AM 43.7903 -98.7494 94° East 445 512 35,000  Level Minneapolis Center
10:54AM 43.7797 -98.5964 95° East 447 514 35,000  Level Minneapolis Center
10:55AM 43.7692 -98.4258 95° East 447 514 35,000  Level Minneapolis Center
10:56AM 43.7547 -98.2211 96° East 448 516 35,000  Level Minneapolis Center
10:57AM 43.7433 -98.0511 95° East 448 516 35,000  Level Minneapolis Center
10:58AM 43.7325 -97.8811 95° East 446 513 35,000  Level Minneapolis Center
10:59AM 43.7206 -97.7128 96° East 443 510 35,000  Level Minneapolis Center
11:01AM 43.7086 -97.5442 96° East 443 510 35,000  Level Minneapolis Center
11:02AM 43.6989 -97.4119 96° East 439 505 35,000  Level Minneapolis Center
11:03AM 43.6842 -97.2119 96° East 437 503 35,000  Level Minneapolis Center
11:04AM 43.6703 -97.0467 97° East 437 503 35,000  Level Minneapolis Center
11:05AM 43.6550 -96.8497 96° East 434 499 35,000  Level Minneapolis Center
11:06AM 43.6372 -96.6881 99° East 431 496 35,000  Level Minneapolis Center
11:07AM 43.6119 -96.5261 102° East 433 498 35,000  Level Minneapolis Center
11:08AM 43.5889 -96.3650 101° East 433 498 35,000  Level Minneapolis Center
11:09AM 43.5653 -96.2036 101° East 434 499 35,000  Level Minneapolis Center
11:10AM 43.5414 -96.0428 102° East 434 499 35,000  Level Minneapolis Center
11:11AM 43.5172 -95.8831 102° East 432 497 35,000  Level Minneapolis Center
11:12AM 43.4914 -95.7219 102° East 434 499 35,000  Level Minneapolis Center
11:13AM 43.4572 -95.4986 102° East 430 495 35,000  Level Minneapolis Center
11:14AM 43.4319 -95.3383 102° East 432 497 35,000  Level Minneapolis Center
11:15AM 43.4075 -95.1786 102° East 431 496 35,000  Level Minneapolis Center
11:16AM 43.3814 -95.0203 103° East 428 493 35,000  Level Minneapolis Center
11:17AM 43.3553 -94.8597 103° East 432 497 35,000  Level Minneapolis Center
11:18AM 43.3236 -94.6694 103° East 429 494 35,000  Level Minneapolis Center
11:19AM 43.2967 -94.5117 103° East 426 490 35,000  Level Minneapolis Center
11:20AM 43.2714 -94.3533 102° East 426 490 35,000  Level Minneapolis Center
11:21AM 43.2472 -94.2133 103° East 425 489 35,000  Level Minneapolis Center
11:22AM 43.2164 -94.0261 103° East 424 488 35,000  Level Minneapolis Center
11:23AM 43.1900 -93.8700 103° East 424 488 35,000  Level Minneapolis Center
11:24AM 43.1633 -93.7158 103° East 421 484 35,000  Level Minneapolis Center
11:25AM 43.1361 -93.5622 104° East 419 482 35,000  Level Minneapolis Center
11:26AM 43.1044 -93.3794 103° East 416 479 35,000  Level Minneapolis Center
11:27AM 43.0878 -93.2239 98° East 414 476 35,000  Level Minneapolis Center
11:28AM 43.0783 -93.0658 95° East 421 484 35,000  Level Minneapolis Center
11:30AM 43.0669 -92.9103 96° East 416 479 35,000  Level Minneapolis Center
11:31AM 43.0567 -92.7539 95° East 415 478 35,000  Level Minneapolis Center
11:32AM 43.0456 -92.5992 96° East 412 474 35,000  Level Minneapolis Center
11:33AM 43.0344 -92.4442 96° East 412 474 35,000 -540 Level Minneapolis Center
11:34AM 43.0219 -92.2894 96° East 411 473 33,900 -1,080 Descending Minneapolis Center
11:35AM 43.0092 -92.1036 95° East 411 473 32,800 -1,080 Descending Minneapolis Center
11:36AM 42.9975 -91.9464 96° East 415 478 31,800 -900 Descending Minneapolis Center
11:37AM 42.9858 -91.7881 96° East 418 481 31,000 -780 Descending Minneapolis Center
11:38AM 42.9667 -91.6256 99° East 425 489 30,300 -780 Descending Minneapolis Center
11:39AM 42.9244 -91.3603 102° East 443 510 29,000 -660 Descending Chicago Center
11:40AM 42.9139 -91.2925 102° East 443 510 29,000  Level Minneapolis Center
11:41AM 42.8894 -91.1297 102° East 441 507 29,000  Level Minneapolis Center
11:42AM 42.8639 -90.9692 102° East 437 503 29,000  Level Minneapolis Center
11:42AM 42.8508 -90.8744 101° East 434 499 29,000  Level Chicago Center
11:43AM 42.8258 -90.7156 102° East 432 497 29,000  Level Chicago Center
11:44AM 42.8003 -90.5575 102° East 429 494 29,000  Level Chicago Center
11:45AM 42.7700 -90.3689 102° East 427 491 29,000 -660 Level Chicago Center
11:46AM 42.7439 -90.2131 103° East 424 488 27,700 -1,260 Descending Chicago Center
11:47AM 42.7192 -90.0639 103° East 410 472 26,500 -1,560 Descending Chicago Center
11:49AM 42.6922 -89.9056 103° East 403 464 24,600 -1,800 Descending Chicago Center
11:50AM 42.6689 -89.7633 103° East 392 451 22,800 -1,740 Descending Chicago Center
11:51AM 42.6458 -89.6222 102° East 386 444 21,100 -1,740 Descending Chicago Center
11:52AM 42.6228 -89.4836 103° East 380 437 19,300 -1,680 Descending Chicago Center
11:53AM 42.5992 -89.3492 103° East 372 428 17,700 -1,860 Descending Chicago Center
11:54AM 42.5742 -89.1983 103° East 358 412 15,600 -1,320 Descending Chicago Center
11:55AM 42.5500 -89.0800 105° East 336 387 15,100 -420 Descending Chicago Center
11:56AM 42.5167 -88.9686 112° Southeast 322 371 14,800 -960 Descending Chicago Center
11:57AM 42.4833 -88.8575 112° Southeast 319 367 13,200 -1,500 Descending Chicago Center
11:58AM 42.4511 -88.7528 113° Southeast 307 353 11,800 -1,320 Descending Chicago Center
11:59AM 42.4206 -88.6525 112° Southeast 293 337 10,500 -1,200 Descending Chicago Center
12:00PM 42.3678 -88.5639 129° Southeast 263 303 9,400 -720 Descending Chicago Center
12:01PM 42.3247 -88.4922 129° Southeast 260 299 9,100 -240 Descending Chicago Center
12:02PM 42.2803 -88.4142 128° Southeast 262 302 9,000 -540 Descending Chicago Center
12:03PM 42.2197 -88.3639 148° Southeast 267 307 8,000 -1,380 Descending Chicago Center
12:04PM 42.1508 -88.3308 160° South 264 304 6,200 -1,920 Descending Chicago Center
12:05PM 42.0806 -88.2725 148° Southeast 257 296 4,100 -1,080 Descending Chicago Center
12:06PM 42.0431 -88.1947 123° Southeast 251 289 4,000 -120 Descending Chicago Center